createdAt,value
2022-08-24T00:01:50.653Z,20.70
2022-08-24T00:04:17.514Z,20.70
2022-08-24T00:06:44.690Z,20.60
2022-08-24T00:09:11.652Z,20.60
2022-08-24T00:11:38.444Z,20.60
2022-08-24T00:14:05.274Z,20.60
2022-08-24T00:16:32.185Z,20.50
2022-08-24T00:19:00.546Z,20.50
2022-08-24T00:21:27.484Z,20.50
2022-08-24T00:23:54.581Z,20.50
2022-08-24T00:26:28.989Z,20.50
2022-08-24T00:28:58.159Z,20.50
2022-08-24T00:31:26.313Z,20.50
2022-08-24T00:33:54.315Z,20.50
2022-08-24T00:36:21.954Z,20.50
2022-08-24T00:38:49.641Z,20.50
2022-08-24T00:41:17.968Z,20.40
2022-08-24T00:43:55.091Z,20.30
2022-08-24T00:46:37.423Z,20.30
2022-08-24T00:49:22.985Z,20.30
2022-08-24T00:52:26.277Z,20.30
2022-08-24T00:55:00.819Z,20.30
2022-08-24T00:57:33.463Z,20.20
2022-08-24T01:00:09.620Z,20.20
2022-08-24T01:02:41.994Z,20.20
2022-08-24T01:05:12.174Z,20.20
2022-08-24T01:07:40.736Z,20.20
2022-08-24T01:10:17.434Z,20.10
2022-08-24T01:12:59.998Z,20.10
2022-08-24T01:15:30.383Z,20.10
2022-08-24T01:18:16.806Z,20.10
2022-08-24T01:20:50.752Z,20.00
2022-08-24T01:23:40.474Z,20.00
2022-08-24T01:26:11.792Z,20.00
2022-08-24T01:28:43.939Z,20.00
2022-08-24T01:31:11.937Z,20.00
2022-08-24T01:33:39.284Z,19.90
2022-08-24T01:36:28.632Z,19.90
2022-08-24T01:39:00.565Z,19.90
2022-08-24T01:41:29.169Z,19.90
2022-08-24T01:43:58.533Z,19.90
2022-08-24T01:46:26.345Z,19.90
2022-08-24T01:48:53.616Z,19.90
2022-08-24T01:51:21.139Z,19.80
2022-08-24T01:53:49.200Z,19.80
2022-08-24T01:56:16.591Z,19.80
2022-08-24T01:58:48.201Z,19.80
2022-08-24T02:01:18.569Z,19.80
2022-08-24T02:03:48.425Z,19.70
2022-08-24T02:06:19.783Z,19.70
2022-08-24T02:08:46.853Z,19.60
2022-08-24T02:11:15.633Z,19.60
2022-08-24T02:13:43.025Z,19.60
2022-08-24T02:16:10.384Z,19.70
2022-08-24T02:18:40.526Z,19.60
2022-08-24T02:21:09.703Z,19.50
2022-08-24T02:23:38.803Z,19.50
2022-08-24T02:26:10.337Z,19.50
2022-08-24T02:28:39.907Z,19.50
2022-08-24T02:31:10.230Z,19.50
2022-08-24T02:33:39.016Z,19.50
2022-08-24T02:36:25.626Z,19.50
2022-08-24T02:38:56.227Z,19.50
2022-08-24T02:41:25.433Z,19.50
2022-08-24T02:43:54.397Z,19.50
2022-08-24T02:46:26.054Z,19.50
2022-08-24T02:48:57.554Z,19.50
2022-08-24T02:51:42.280Z,19.50
2022-08-24T02:54:17.846Z,19.40
2022-08-24T02:56:47.308Z,19.40
2022-08-24T02:59:16.019Z,19.30
2022-08-24T03:01:43.819Z,19.30
2022-08-24T03:04:12.595Z,19.30
2022-08-24T03:06:39.970Z,19.30
2022-08-24T03:09:07.607Z,19.30
2022-08-24T03:11:34.966Z,19.30
2022-08-24T03:14:01.872Z,19.30
2022-08-24T03:16:31.363Z,19.20
2022-08-24T03:18:59.049Z,19.20
2022-08-24T03:21:28.533Z,19.20
2022-08-24T03:23:56.726Z,19.20
2022-08-24T03:26:24.127Z,19.20
2022-08-24T03:28:51.873Z,19.20
2022-08-24T03:31:19.583Z,19.20
2022-08-24T03:33:48.599Z,19.20
2022-08-24T03:36:16.915Z,19.10
2022-08-24T03:38:44.783Z,19.10
2022-08-24T03:41:12.312Z,19.10
2022-08-24T03:43:46.496Z,19.10
2022-08-24T03:46:27.082Z,19.10
2022-08-24T03:48:56.058Z,19.10
2022-08-24T03:51:28.322Z,19.00
2022-08-24T03:53:58.794Z,19.00
2022-08-24T03:56:28.485Z,19.00
2022-08-24T03:58:56.244Z,19.00
2022-08-24T04:01:25.097Z,19.00
2022-08-24T04:03:54.237Z,19.00
2022-08-24T04:06:25.021Z,19.00
2022-08-24T04:08:53.069Z,18.90
2022-08-24T04:11:26.574Z,18.90
2022-08-24T04:13:57.701Z,18.90
2022-08-24T04:16:26.651Z,18.90
2022-08-24T04:19:03.153Z,18.90
2022-08-24T04:21:35.465Z,18.90
2022-08-24T04:24:07.212Z,18.80
2022-08-24T04:26:45.191Z,18.80
2022-08-24T04:29:16.662Z,18.80
2022-08-24T04:31:48.517Z,18.80
2022-08-24T04:34:18.323Z,18.80
2022-08-24T04:36:46.649Z,18.80
2022-08-24T04:39:14.398Z,18.80
2022-08-24T04:41:42.444Z,18.80
2022-08-24T04:44:11.292Z,18.80
2022-08-24T04:46:39.468Z,18.80
2022-08-24T04:49:08.435Z,18.70
2022-08-24T04:51:36.515Z,18.80
2022-08-24T04:54:05.229Z,18.90
2022-08-24T04:56:32.195Z,18.90
2022-08-24T04:58:59.776Z,18.90
2022-08-24T05:01:32.756Z,18.90
2022-08-24T05:04:00.791Z,18.90
2022-08-24T05:06:30.679Z,19.00
2022-08-24T05:08:58.612Z,19.10
2022-08-24T05:11:26.936Z,19.10
2022-08-24T05:13:56.461Z,19.10
2022-08-24T05:16:25.668Z,19.10
2022-08-24T05:18:55.299Z,19.10
2022-08-24T05:21:24.432Z,19.20
2022-08-24T05:23:54.599Z,19.20
2022-08-24T05:26:28.452Z,19.30
2022-08-24T05:28:59.216Z,19.30
2022-08-24T05:31:32.591Z,19.30
2022-08-24T05:34:05.380Z,19.40
2022-08-24T05:36:38.258Z,19.30
2022-08-24T05:39:13.732Z,19.40
2022-08-24T05:41:46.755Z,19.40
2022-08-24T05:44:21.420Z,19.50
2022-08-24T05:46:48.353Z,19.50
2022-08-24T05:49:15.863Z,19.50
2022-08-24T05:51:42.729Z,19.60
2022-08-24T05:54:13.658Z,19.60
2022-08-24T05:56:49.639Z,19.70
2022-08-24T05:59:17.955Z,19.80
2022-08-24T06:01:45.762Z,19.80
2022-08-24T06:04:12.883Z,20.00
2022-08-24T06:06:39.860Z,20.30
2022-08-24T06:09:07.200Z,20.30
2022-08-24T06:11:39.580Z,20.20
2022-08-24T06:14:15.290Z,20.30
2022-08-24T06:16:55.535Z,20.30
2022-08-24T06:19:24.178Z,20.40
2022-08-24T06:21:53.724Z,20.40
2022-08-24T06:24:43.258Z,20.60
2022-08-24T06:27:22.753Z,20.60
2022-08-24T06:30:01.054Z,20.70
2022-08-24T06:32:53.889Z,20.80
2022-08-24T06:35:46.774Z,20.90
2022-08-24T06:38:13.976Z,21.10
2022-08-24T06:40:42.745Z,21.30
2022-08-24T06:43:10.962Z,21.50
2022-08-24T06:45:45.382Z,21.70
2022-08-24T06:48:14.497Z,21.80
2022-08-24T06:50:41.823Z,21.90
2022-08-24T06:53:09.204Z,22.10
2022-08-24T06:55:35.979Z,22.30
2022-08-24T06:58:03.056Z,22.50
2022-08-24T07:00:31.100Z,22.60
2022-08-24T07:02:58.002Z,22.70
2022-08-24T07:05:25.466Z,22.70
2022-08-24T07:08:18.697Z,22.70
2022-08-24T07:10:46.062Z,22.70
2022-08-24T07:13:14.557Z,22.70
2022-08-24T07:15:45.522Z,22.80
2022-08-24T07:18:16.560Z,23.00
2022-08-24T07:20:48.052Z,23.10
2022-08-24T07:23:21.991Z,23.20
2022-08-24T07:26:21.020Z,23.40
2022-08-24T07:29:45.731Z,23.30
2022-08-24T07:32:05.452Z,23.30
2022-08-24T07:34:37.285Z,23.30
2022-08-24T07:37:05.476Z,23.30
2022-08-24T07:39:32.309Z,23.40
2022-08-24T07:42:12.694Z,23.40
2022-08-24T07:44:40.949Z,23.70
2022-08-24T07:47:34.236Z,23.80
2022-08-24T07:49:56.087Z,23.70
2022-08-24T07:52:22.970Z,23.80
2022-08-24T07:54:50.054Z,23.90
2022-08-24T07:57:17.240Z,23.80
2022-08-24T07:59:44.043Z,23.80
2022-08-24T08:02:11.671Z,24.00
2022-08-24T08:04:41.340Z,24.10
2022-08-24T08:07:09.255Z,24.20
2022-08-24T08:09:38.317Z,24.20
2022-08-24T08:12:06.448Z,24.30
2022-08-24T08:14:33.641Z,24.20
2022-08-24T08:17:01.225Z,24.20
2022-08-24T08:19:28.099Z,24.30
2022-08-24T08:22:13.516Z,24.30
2022-08-24T08:25:08.012Z,24.30
2022-08-24T08:27:36.191Z,24.50
2022-08-24T08:30:06.565Z,24.50
2022-08-24T08:32:34.519Z,24.50
2022-08-24T08:35:02.414Z,24.60
2022-08-24T08:37:31.145Z,24.70
2022-08-24T08:39:58.656Z,24.70
2022-08-24T08:42:59.016Z,24.90
2022-08-24T08:45:58.192Z,25.00
2022-08-24T08:49:08.355Z,25.10
2022-08-24T08:52:03.648Z,25.20
2022-08-24T08:54:51.056Z,25.40
2022-08-24T08:57:42.387Z,25.60
2022-08-24T09:00:16.631Z,25.50
2022-08-24T09:03:42.069Z,25.50
2022-08-24T09:06:50.385Z,25.50
2022-08-24T09:10:06.352Z,25.70
2022-08-24T09:13:14.909Z,25.80
2022-08-24T09:16:12.600Z,26.00
2022-08-24T09:18:59.172Z,25.80
2022-08-24T09:21:42.115Z,26.00
2022-08-24T09:24:47.184Z,26.00
2022-08-24T09:28:05.479Z,26.20
2022-08-24T09:30:54.076Z,26.40
2022-08-24T09:33:31.165Z,26.40
2022-08-24T09:36:13.971Z,26.30
2022-08-24T09:39:10.488Z,26.50
2022-08-24T09:41:52.155Z,26.70
2022-08-24T09:44:56.193Z,26.70
2022-08-24T09:48:03.548Z,27.00
2022-08-24T09:50:55.788Z,27.10
2022-08-24T09:54:19.979Z,26.90
2022-08-24T09:58:01.556Z,26.90
2022-08-24T10:00:43.887Z,27.10
2022-08-24T10:04:01.180Z,27.30
2022-08-24T10:06:51.481Z,27.40
2022-08-24T10:09:58.080Z,27.30
2022-08-24T10:12:44.020Z,26.90
2022-08-24T10:15:33.743Z,27.20
2022-08-24T10:19:05.964Z,27.40
2022-08-24T10:22:14.190Z,27.60
2022-08-24T10:25:37.328Z,27.70
2022-08-24T10:28:35.094Z,27.70
2022-08-24T10:31:12.628Z,27.80
2022-08-24T10:34:27.194Z,28.00
2022-08-24T10:37:05.459Z,28.20
2022-08-24T10:39:41.057Z,28.30
2022-08-24T10:43:10.209Z,28.30
2022-08-24T10:46:18.680Z,28.50
2022-08-24T10:49:32.856Z,28.60
2022-08-24T10:52:38.070Z,28.50
2022-08-24T10:55:21.352Z,28.50
2022-08-24T10:58:28.694Z,28.70
2022-08-24T11:00:56.351Z,28.90
2022-08-24T11:03:28.607Z,28.90
2022-08-24T11:05:57.796Z,28.90
2022-08-24T11:08:33.244Z,28.90
2022-08-24T11:11:14.175Z,28.70
2022-08-24T11:14:16.002Z,28.70
2022-08-24T11:16:47.344Z,28.70
2022-08-24T11:19:32.244Z,28.60
2022-08-24T11:22:04.687Z,28.50
2022-08-24T11:24:46.365Z,28.40
2022-08-24T11:27:35.812Z,28.30
2022-08-24T11:30:15.288Z,28.20
2022-08-24T11:32:51.072Z,28.10
2022-08-24T11:35:32.307Z,28.20
2022-08-24T11:38:20.444Z,28.40
2022-08-24T11:41:13.191Z,28.50
2022-08-24T11:44:16.607Z,28.70
2022-08-24T11:47:02.788Z,28.70
2022-08-24T11:50:14.396Z,28.80
2022-08-24T11:53:12.037Z,28.80
2022-08-24T11:56:31.413Z,29.00
2022-08-24T11:59:27.683Z,29.00
2022-08-24T12:02:04.649Z,29.00
2022-08-24T12:04:49.322Z,29.20
2022-08-24T12:07:50.996Z,29.00
2022-08-24T12:10:32.999Z,29.10
2022-08-24T12:13:48.097Z,29.00
2022-08-24T12:16:55.352Z,29.10
2022-08-24T12:19:30.012Z,28.80
2022-08-24T12:22:05.824Z,28.70
2022-08-24T12:24:43.005Z,28.70
2022-08-24T12:27:24.998Z,28.90
2022-08-24T12:30:07.263Z,29.00
2022-08-24T12:32:47.799Z,29.00
2022-08-24T12:35:28.525Z,29.00
2022-08-24T12:38:28.663Z,29.10
2022-08-24T12:41:33.692Z,29.10
2022-08-24T12:44:12.271Z,29.30
2022-08-24T12:46:43.030Z,29.40
2022-08-24T12:49:51.252Z,29.20
2022-08-24T12:52:46.066Z,29.20
2022-08-24T12:55:47.840Z,29.40
2022-08-24T12:58:56.279Z,29.60
2022-08-24T13:01:29.437Z,29.60
2022-08-24T13:04:40.519Z,29.60
2022-08-24T13:07:29.790Z,29.50
2022-08-24T13:09:56.469Z,29.50
2022-08-24T13:12:41.277Z,29.60
2022-08-24T13:15:26.063Z,29.80
2022-08-24T13:18:09.974Z,29.60
2022-08-24T13:20:37.097Z,29.60
2022-08-24T13:23:05.902Z,29.60
2022-08-24T13:25:47.676Z,29.60
2022-08-24T13:28:20.587Z,29.60
2022-08-24T13:31:31.461Z,29.70
2022-08-24T13:34:22.083Z,29.80
2022-08-24T13:37:20.273Z,29.70
2022-08-24T13:39:53.129Z,29.40
2022-08-24T13:42:43.528Z,29.20
2022-08-24T13:45:54.713Z,29.10
2022-08-24T13:48:55.695Z,29.00
2022-08-24T13:51:46.918Z,28.90
2022-08-24T13:54:48.519Z,28.80
2022-08-24T13:58:10.878Z,28.70
2022-08-24T14:01:13.817Z,28.60
2022-08-24T14:04:23.937Z,28.60
2022-08-24T14:07:03.499Z,28.60
2022-08-24T14:10:24.477Z,28.60
2022-08-24T14:13:24.527Z,28.60
2022-08-24T14:16:29.191Z,28.60
2022-08-24T14:19:41.031Z,28.60
2022-08-24T14:22:42.784Z,28.50
2022-08-24T14:25:26.925Z,28.50
2022-08-24T14:27:59.923Z,28.60
2022-08-24T14:30:26.770Z,28.60
2022-08-24T14:33:17.133Z,28.60
2022-08-24T14:36:08.348Z,28.50
2022-08-24T14:38:54.354Z,28.50
2022-08-24T14:41:52.397Z,28.60
2022-08-24T14:44:59.995Z,28.70
2022-08-24T14:48:11.979Z,28.80
2022-08-24T14:50:57.680Z,28.80
2022-08-24T14:53:56.996Z,28.90
2022-08-24T14:57:07.291Z,28.90
2022-08-24T15:00:05.358Z,28.80
2022-08-24T15:03:18.897Z,28.80
2022-08-24T15:06:27.289Z,28.80
2022-08-24T15:09:23.404Z,28.70
2022-08-24T15:12:00.699Z,28.80
2022-08-24T15:14:51.746Z,28.80
2022-08-24T15:17:25.701Z,28.70
2022-08-24T15:20:06.772Z,28.70
2022-08-24T15:22:52.106Z,28.70
2022-08-24T15:25:42.664Z,28.80
2022-08-24T15:28:32.854Z,28.70
2022-08-24T15:31:07.682Z,28.70
2022-08-24T15:33:52.092Z,28.70
2022-08-24T15:36:19.412Z,28.70
2022-08-24T15:38:46.443Z,28.60
2022-08-24T15:41:38.957Z,28.70
2022-08-24T15:44:21.335Z,28.70
2022-08-24T15:46:57.783Z,28.60
2022-08-24T15:49:35.956Z,28.60
2022-08-24T15:52:09.514Z,28.70
2022-08-24T15:54:56.346Z,28.70
2022-08-24T15:57:31.236Z,28.70
2022-08-24T16:00:38.182Z,28.70
2022-08-24T16:03:49.759Z,28.60
2022-08-24T16:06:32.512Z,28.50
2022-08-24T16:09:21.198Z,28.50
2022-08-24T16:12:00.905Z,28.50
2022-08-24T16:14:47.544Z,28.50
2022-08-24T16:17:34.704Z,28.30
2022-08-24T16:20:11.919Z,28.30
2022-08-24T16:22:58.949Z,28.30
2022-08-24T16:25:39.852Z,28.20
2022-08-24T16:28:17.838Z,28.20
2022-08-24T16:31:00.748Z,28.20
2022-08-24T16:33:33.134Z,28.10
2022-08-24T16:36:05.588Z,28.10
2022-08-24T16:38:35.223Z,28.10
2022-08-24T16:41:10.726Z,28.20
2022-08-24T16:43:41.560Z,28.20
2022-08-24T16:46:11.755Z,28.20
2022-08-24T16:48:40.068Z,28.20
2022-08-24T16:51:07.034Z,28.20
2022-08-24T16:53:33.886Z,28.20
2022-08-24T16:56:04.133Z,28.10
2022-08-24T16:58:34.752Z,28.10
2022-08-24T17:01:02.281Z,28.10
2022-08-24T17:03:29.898Z,28.10
2022-08-24T17:05:57.648Z,28.00
2022-08-24T17:08:27.443Z,27.90
2022-08-24T17:10:55.281Z,27.80
2022-08-24T17:13:46.342Z,27.90
2022-08-24T17:16:12.535Z,27.80
2022-08-24T17:18:41.410Z,27.80
2022-08-24T17:21:08.381Z,27.80
2022-08-24T17:23:40.628Z,27.80
2022-08-24T17:26:20.247Z,27.70
2022-08-24T17:28:52.518Z,27.70
2022-08-24T17:31:19.767Z,27.70
2022-08-24T17:33:46.720Z,27.70
2022-08-24T17:36:23.646Z,27.70
2022-08-24T17:38:55.848Z,27.60
2022-08-24T17:41:26.166Z,27.60
2022-08-24T17:43:54.440Z,27.50
2022-08-24T17:46:22.379Z,27.50
2022-08-24T17:48:50.336Z,27.50
2022-08-24T17:51:17.543Z,27.40
2022-08-24T17:53:44.443Z,27.40
2022-08-24T17:56:13.908Z,27.30
2022-08-24T17:59:01.475Z,27.20
2022-08-24T18:01:28.968Z,27.10
2022-08-24T18:03:56.060Z,27.10
2022-08-24T18:06:27.004Z,27.00
2022-08-24T18:08:56.724Z,26.90
2022-08-24T18:11:25.975Z,26.90
2022-08-24T18:13:54.252Z,26.90
2022-08-24T18:16:25.008Z,26.80
2022-08-24T18:18:53.519Z,26.70
2022-08-24T18:21:21.975Z,26.70
2022-08-24T18:23:50.889Z,26.60
2022-08-24T18:26:28.572Z,26.50
2022-08-24T18:29:13.533Z,26.40
2022-08-24T18:31:41.994Z,26.40
2022-08-24T18:34:19.354Z,26.30
2022-08-24T18:36:46.800Z,26.30
2022-08-24T18:39:14.285Z,26.30
2022-08-24T18:41:44.149Z,26.30
2022-08-24T18:44:20.688Z,26.20
2022-08-24T18:46:48.857Z,26.10
2022-08-24T18:49:18.100Z,26.10
2022-08-24T18:51:48.153Z,26.00
2022-08-24T18:54:22.316Z,25.90
2022-08-24T18:56:50.195Z,25.80
2022-08-24T18:59:20.307Z,25.80
2022-08-24T19:02:09.740Z,25.70
2022-08-24T19:04:45.552Z,25.70
2022-08-24T19:07:13.563Z,25.60
2022-08-24T19:09:40.353Z,25.50
2022-08-24T19:12:08.526Z,25.50
2022-08-24T19:14:36.752Z,25.50
2022-08-24T19:17:04.502Z,25.40
2022-08-24T19:19:31.259Z,25.40
2022-08-24T19:21:58.976Z,25.40
2022-08-24T19:24:28.694Z,25.30
2022-08-24T19:26:55.736Z,25.30
2022-08-24T19:29:53.900Z,25.20
2022-08-24T19:32:26.399Z,25.20
2022-08-24T19:34:54.732Z,25.10
2022-08-24T19:37:23.166Z,25.10
2022-08-24T19:39:51.030Z,25.00
2022-08-24T19:42:19.329Z,25.00
2022-08-24T19:45:04.912Z,25.00
2022-08-24T19:47:34.313Z,24.80
2022-08-24T19:50:04.291Z,24.80
2022-08-24T19:52:32.826Z,24.80
2022-08-24T19:55:00.558Z,24.90
2022-08-24T19:57:33.405Z,24.80
2022-08-24T20:00:17.226Z,24.80
2022-08-24T20:02:48.940Z,24.70
2022-08-24T20:05:19.279Z,24.70
2022-08-24T20:07:47.606Z,24.70
2022-08-24T20:10:19.750Z,24.60
2022-08-24T20:12:46.717Z,24.60
2022-08-24T20:15:15.122Z,24.60
2022-08-24T20:17:42.628Z,24.60
2022-08-24T20:20:15.704Z,24.60
2022-08-24T20:22:42.536Z,24.50
2022-08-24T20:25:09.895Z,24.50
2022-08-24T20:27:37.584Z,24.50
2022-08-24T20:30:06.734Z,24.50
2022-08-24T20:32:33.782Z,24.40
2022-08-24T20:35:01.719Z,24.30
2022-08-24T20:37:31.992Z,24.40
2022-08-24T20:40:00.171Z,24.30
2022-08-24T20:42:29.307Z,24.30
2022-08-24T20:44:56.205Z,24.30
2022-08-24T20:47:23.503Z,24.30
2022-08-24T20:49:51.002Z,24.30
2022-08-24T20:52:18.110Z,24.40
2022-08-24T20:54:44.995Z,24.30
2022-08-24T20:57:18.121Z,24.30
2022-08-24T20:59:45.936Z,24.30
2022-08-24T21:02:13.623Z,24.30
2022-08-24T21:04:40.455Z,24.20
2022-08-24T21:07:11.399Z,24.30
2022-08-24T21:09:38.623Z,24.20
2022-08-24T21:12:05.952Z,24.20
2022-08-24T21:14:32.746Z,24.20
2022-08-24T21:17:00.277Z,24.20
2022-08-24T21:19:27.338Z,24.20
2022-08-24T21:21:54.100Z,24.10
2022-08-24T21:24:20.839Z,24.10
2022-08-24T21:26:47.799Z,24.10
2022-08-24T21:29:14.686Z,24.10
2022-08-24T21:31:42.417Z,24.10
2022-08-24T21:34:28.080Z,24.00
2022-08-24T21:36:55.132Z,24.00
2022-08-24T21:39:22.003Z,24.00
2022-08-24T21:41:48.775Z,23.90
2022-08-24T21:44:16.567Z,23.90
2022-08-24T21:46:43.501Z,23.90
2022-08-24T21:49:12.125Z,23.90
2022-08-24T21:51:40.311Z,24.00
2022-08-24T21:54:07.689Z,23.90
2022-08-24T21:56:35.046Z,23.90
2022-08-24T21:59:02.992Z,23.90
2022-08-24T22:01:30.091Z,23.90
2022-08-24T22:03:58.284Z,23.90
2022-08-24T22:06:31.070Z,23.80
2022-08-24T22:08:59.963Z,23.80
2022-08-24T22:11:31.465Z,23.70
2022-08-24T22:13:58.282Z,23.80
2022-08-24T22:16:26.017Z,23.80
2022-08-24T22:18:52.831Z,23.70
2022-08-24T22:21:24.468Z,23.80
2022-08-24T22:23:51.345Z,23.70
2022-08-24T22:26:18.643Z,23.70
2022-08-24T22:28:45.464Z,23.70
2022-08-24T22:31:29.811Z,23.70
2022-08-24T22:33:59.408Z,23.70
2022-08-24T22:36:28.767Z,23.70
2022-08-24T22:38:58.187Z,23.70
2022-08-24T22:41:26.415Z,23.70
2022-08-24T22:44:13.960Z,23.70
2022-08-24T22:46:41.631Z,23.70
2022-08-24T22:49:10.004Z,23.60
2022-08-24T22:51:38.167Z,23.60
2022-08-24T22:54:05.136Z,23.60
2022-08-24T22:56:39.445Z,23.60
2022-08-24T22:59:09.119Z,23.60
2022-08-24T23:01:42.539Z,23.60
2022-08-24T23:04:15.642Z,23.60
2022-08-24T23:06:43.184Z,23.60
2022-08-24T23:09:11.053Z,23.60
2022-08-24T23:11:39.087Z,23.50
2022-08-24T23:14:07.126Z,23.40
2022-08-24T23:16:37.726Z,23.40
2022-08-24T23:19:26.178Z,23.40
2022-08-24T23:21:53.805Z,23.40
2022-08-24T23:24:21.504Z,23.30
2022-08-24T23:26:49.282Z,23.20
2022-08-24T23:29:16.973Z,23.30
2022-08-24T23:31:46.016Z,23.30
2022-08-24T23:34:13.618Z,23.20
2022-08-24T23:36:41.257Z,23.20
2022-08-24T23:39:10.708Z,23.20
2022-08-24T23:41:42.451Z,23.20
2022-08-24T23:44:17.035Z,23.20
2022-08-24T23:46:45.376Z,23.20
2022-08-24T23:49:14.817Z,23.20
2022-08-24T23:51:42.059Z,23.10
2022-08-24T23:54:10.834Z,23.20
2022-08-24T23:56:40.939Z,23.20
2022-08-24T23:59:20.296Z,23.20
